createdAt,value
2018-04-30T00:00:12.894Z,17.60
2018-04-30T00:02:39.176Z,17.50
2018-04-30T00:05:05.528Z,17.40
2018-04-30T00:07:32.561Z,17.30
2018-04-30T00:09:58.875Z,17.20
2018-04-30T00:12:25.180Z,17.20
2018-04-30T00:14:51.475Z,17.10
2018-04-30T00:17:17.773Z,17.10
2018-04-30T00:19:44.109Z,17.00
2018-04-30T00:22:10.401Z,16.90
2018-04-30T00:24:36.718Z,16.80
2018-04-30T00:27:03.006Z,16.80
2018-04-30T00:29:29.305Z,16.80
2018-04-30T00:31:55.610Z,16.70
2018-04-30T00:34:21.892Z,16.70
2018-04-30T00:36:48.185Z,16.60
2018-04-30T00:39:14.483Z,16.60
2018-04-30T00:41:40.779Z,16.50
2018-04-30T00:44:07.060Z,16.50
2018-04-30T00:46:33.331Z,16.50
2018-04-30T00:48:59.622Z,16.40
2018-04-30T00:51:25.911Z,16.40
2018-04-30T00:53:52.963Z,16.30
2018-04-30T00:56:19.971Z,16.20
2018-04-30T00:58:46.277Z,16.20
2018-04-30T01:01:12.590Z,16.20
2018-04-30T01:03:39.638Z,16.10
2018-04-30T01:06:05.973Z,16.10
2018-04-30T01:08:32.270Z,16.00
2018-04-30T01:10:58.588Z,15.90
2018-04-30T01:13:24.924Z,15.90
2018-04-30T01:15:51.230Z,15.80
2018-04-30T01:18:17.541Z,15.80
2018-04-30T01:20:43.816Z,15.80
2018-04-30T01:23:10.109Z,15.70
2018-04-30T01:25:36.407Z,15.70
2018-04-30T01:28:03.492Z,15.50
2018-04-30T01:30:29.795Z,15.50
2018-04-30T01:32:56.114Z,15.50
2018-04-30T01:35:23.167Z,15.40
2018-04-30T01:37:50.212Z,15.30
2018-04-30T01:40:17.256Z,15.30
2018-04-30T01:42:44.303Z,15.30
2018-04-30T01:45:11.340Z,15.40
2018-04-30T01:47:38.388Z,15.30
2018-04-30T01:50:05.442Z,15.20
2018-04-30T01:52:32.493Z,15.20
2018-04-30T01:54:59.545Z,15.10
2018-04-30T01:57:26.635Z,15.10
2018-04-30T01:59:52.953Z,15.00
2018-04-30T02:02:19.275Z,15.00
2018-04-30T02:04:45.579Z,14.80
2018-04-30T02:07:12.603Z,14.80
2018-04-30T02:09:38.900Z,15.60
2018-04-30T02:12:05.196Z,14.80
2018-04-30T02:14:32.218Z,14.70
2018-04-30T02:16:58.515Z,14.60
2018-04-30T02:19:24.800Z,14.60
2018-04-30T02:21:51.851Z,14.50
2018-04-30T02:24:18.921Z,14.40
2018-04-30T02:26:45.240Z,14.40
2018-04-30T02:29:11.547Z,14.30
2018-04-30T02:31:38.588Z,14.20
2018-04-30T02:34:04.940Z,14.20
2018-04-30T02:36:31.951Z,14.10
2018-04-30T02:38:58.262Z,14.10
2018-04-30T02:41:24.577Z,14.10
2018-04-30T02:43:50.887Z,14.10
2018-04-30T02:46:17.931Z,13.90
2018-04-30T02:48:44.955Z,13.90
2018-04-30T02:51:11.260Z,13.90
2018-04-30T02:53:37.564Z,13.90
2018-04-30T02:56:03.845Z,13.80
2018-04-30T02:58:30.179Z,13.90
2018-04-30T03:00:56.485Z,13.90
2018-04-30T03:03:22.796Z,13.80
2018-04-30T03:05:49.112Z,13.70
2018-04-30T03:08:15.416Z,13.60
2018-04-30T03:10:41.797Z,13.50
2018-04-30T03:13:08.187Z,13.30
2018-04-30T03:15:35.297Z,13.20
2018-04-30T03:18:01.601Z,13.20
2018-04-30T03:20:27.916Z,13.20
2018-04-30T03:22:54.251Z,13.20
2018-04-30T03:25:20.580Z,13.00
2018-04-30T03:27:46.884Z,13.00
2018-04-30T03:30:13.183Z,12.90
2018-04-30T03:32:39.500Z,12.80
2018-04-30T03:35:05.802Z,12.80
2018-04-30T03:37:32.083Z,12.60
2018-04-30T03:39:58.397Z,12.50
2018-04-30T03:42:24.701Z,12.50
2018-04-30T03:44:50.999Z,12.30
2018-04-30T03:47:18.074Z,12.30
2018-04-30T03:49:44.420Z,12.20
2018-04-30T03:52:10.673Z,12.20
2018-04-30T03:54:37.012Z,12.20
2018-04-30T03:57:03.324Z,12.10
2018-04-30T03:59:29.595Z,12.20
2018-04-30T04:02:08.677Z,12.00
2018-04-30T04:04:47.015Z,12.00
2018-04-30T04:07:13.316Z,12.00
2018-04-30T04:09:39.604Z,12.00
2018-04-30T04:12:06.631Z,11.90
2018-04-30T04:14:32.916Z,11.90
2018-04-30T04:16:59.196Z,11.90
2018-04-30T04:19:25.489Z,11.80
2018-04-30T04:21:51.791Z,11.80
2018-04-30T04:24:18.130Z,11.80
2018-04-30T04:26:44.414Z,11.90
2018-04-30T04:29:10.800Z,11.90
2018-04-30T04:31:37.096Z,11.90
2018-04-30T04:34:04.174Z,12.00
2018-04-30T04:36:30.473Z,12.00
2018-04-30T04:38:58.581Z,12.00
2018-04-30T04:41:24.910Z,12.00
2018-04-30T04:43:52.265Z,12.10
2018-04-30T04:46:18.548Z,12.00
2018-04-30T04:48:44.860Z,12.00
2018-04-30T04:51:11.186Z,12.00
2018-04-30T04:53:37.472Z,12.00
2018-04-30T04:56:03.823Z,12.00
2018-04-30T04:58:30.808Z,12.00
2018-04-30T05:00:57.128Z,12.00
2018-04-30T05:03:23.412Z,12.00
2018-04-30T05:05:49.712Z,12.00
2018-04-30T05:08:16.013Z,12.00
2018-04-30T05:10:42.302Z,12.00
2018-04-30T05:13:08.662Z,12.00
2018-04-30T05:15:34.963Z,12.00
2018-04-30T05:18:01.309Z,12.00
2018-04-30T05:20:27.629Z,12.00
2018-04-30T05:22:53.911Z,12.00
2018-04-30T05:25:20.315Z,12.10
2018-04-30T05:27:46.948Z,12.20
2018-04-30T05:30:13.247Z,12.30
2018-04-30T05:32:39.536Z,12.40
2018-04-30T05:35:05.991Z,12.40
2018-04-30T05:37:33.031Z,12.50
2018-04-30T05:39:59.425Z,12.50
2018-04-30T05:42:25.712Z,12.50
2018-04-30T05:44:52.777Z,12.60
2018-04-30T05:47:19.075Z,12.60
2018-04-30T05:49:45.403Z,12.60
2018-04-30T05:52:11.695Z,12.70
2018-04-30T05:54:38.021Z,12.70
2018-04-30T05:57:04.324Z,12.80
2018-04-30T05:59:31.363Z,12.80
2018-04-30T06:02:05.228Z,12.80
2018-04-30T06:04:31.512Z,13.00
2018-04-30T06:06:57.853Z,12.80
2018-04-30T06:09:24.193Z,12.90
2018-04-30T06:11:50.501Z,12.90
2018-04-30T06:14:17.613Z,13.10
2018-04-30T06:16:43.939Z,13.10
2018-04-30T06:19:10.327Z,13.30
2018-04-30T06:21:36.627Z,13.40
2018-04-30T06:24:02.912Z,15.20
2018-04-30T06:26:30.057Z,16.80
2018-04-30T06:28:56.384Z,21.90
2018-04-30T06:31:22.712Z,26.20
2018-04-30T06:33:49.030Z,28.30
2018-04-30T06:36:15.355Z,31.30
2018-04-30T06:38:42.399Z,25.00
2018-04-30T06:41:09.443Z,22.90
2018-04-30T06:43:36.460Z,21.70
2018-04-30T06:46:02.753Z,21.60
2018-04-30T06:48:29.068Z,21.10
2018-04-30T06:50:55.367Z,21.50
2018-04-30T06:53:21.740Z,26.40
2018-04-30T06:55:48.068Z,28.60
2018-04-30T06:58:14.385Z,28.30
2018-04-30T07:00:41.759Z,32.20
2018-04-30T07:03:08.044Z,34.30
2018-04-30T07:05:34.411Z,34.20
2018-04-30T07:08:00.742Z,35.20
2018-04-30T07:10:27.764Z,37.80
2018-04-30T07:12:54.859Z,36.40
2018-04-30T07:15:21.203Z,36.30
2018-04-30T07:17:47.512Z,36.60
2018-04-30T07:20:13.844Z,36.90
2018-04-30T07:22:40.137Z,38.00
2018-04-30T07:25:07.177Z,36.60
2018-04-30T07:27:33.581Z,36.50
2018-04-30T07:29:59.788Z,34.80
2018-04-30T07:32:26.096Z,33.20
2018-04-30T07:34:52.405Z,31.20
2018-04-30T07:37:19.447Z,32.90
2018-04-30T07:39:45.795Z,32.80
2018-04-30T07:42:12.863Z,30.30
2018-04-30T07:44:39.179Z,30.20
2018-04-30T07:47:06.199Z,31.30
2018-04-30T07:49:32.505Z,31.30
2018-04-30T07:51:58.799Z,33.50
2018-04-30T07:54:25.079Z,33.80
2018-04-30T07:56:51.404Z,33.00
2018-04-30T07:59:17.721Z,29.40
2018-04-30T08:01:44.027Z,26.00
2018-04-30T08:04:10.388Z,23.70
2018-04-30T08:06:36.714Z,22.30
2018-04-30T08:09:03.914Z,21.80
2018-04-30T08:11:30.191Z,21.40
2018-04-30T08:13:56.525Z,21.30
2018-04-30T08:16:22.890Z,20.90
2018-04-30T08:18:49.955Z,20.60
2018-04-30T08:21:16.996Z,20.50
2018-04-30T08:23:44.009Z,20.50
2018-04-30T08:26:10.312Z,20.40
2018-04-30T08:28:36.623Z,20.80
2018-04-30T08:31:02.912Z,20.80
2018-04-30T08:33:29.207Z,20.90
2018-04-30T08:35:55.522Z,21.10
2018-04-30T08:38:21.806Z,21.20
2018-04-30T08:40:48.230Z,21.40
2018-04-30T08:43:14.539Z,21.30
2018-04-30T08:45:40.834Z,21.20
2018-04-30T08:48:07.881Z,21.00
2018-04-30T08:50:34.203Z,21.00
2018-04-30T08:53:01.289Z,20.60
2018-04-30T08:55:27.588Z,20.60
2018-04-30T08:57:54.617Z,20.30
2018-04-30T09:00:21.073Z,20.30
2018-04-30T09:05:20.279Z,20.30
2018-04-30T09:07:47.362Z,20.50
2018-04-30T09:10:13.696Z,20.50
2018-04-30T09:12:40.008Z,20.60
2018-04-30T09:15:06.711Z,20.70
2018-04-30T09:17:33.012Z,20.40
2018-04-30T09:19:59.331Z,20.30
2018-04-30T09:22:25.625Z,20.40
2018-04-30T09:24:52.668Z,20.70
2018-04-30T09:27:19.703Z,20.80
2018-04-30T09:29:45.976Z,20.80
2018-04-30T09:32:12.307Z,20.70
2018-04-30T09:34:38.603Z,20.60
2018-04-30T09:37:05.647Z,20.90
2018-04-30T09:39:31.994Z,20.90
2018-04-30T09:41:59.042Z,20.80
2018-04-30T09:44:26.089Z,20.70
2018-04-30T09:46:53.095Z,20.60
2018-04-30T09:49:19.416Z,20.60
2018-04-30T09:51:45.751Z,20.60
2018-04-30T09:54:12.041Z,20.70
2018-04-30T09:56:38.339Z,20.30
2018-04-30T09:59:04.619Z,20.10
2018-04-30T10:01:30.928Z,20.30
2018-04-30T10:03:57.247Z,20.50
2018-04-30T10:06:24.300Z,20.30
2018-04-30T10:08:51.335Z,20.10
2018-04-30T10:11:18.403Z,20.30
2018-04-30T10:13:45.440Z,20.10
2018-04-30T10:16:12.455Z,20.30
2018-04-30T10:18:38.760Z,20.30
2018-04-30T10:21:05.080Z,20.10
2018-04-30T10:23:31.467Z,20.30
2018-04-30T10:25:57.737Z,20.40
2018-04-30T10:28:24.023Z,20.30
2018-04-30T10:30:50.307Z,20.00
2018-04-30T10:33:16.612Z,19.60
2018-04-30T10:35:43.656Z,20.00
2018-04-30T10:38:10.723Z,20.30
2018-04-30T10:40:37.017Z,20.30
2018-04-30T10:43:03.355Z,20.20
2018-04-30T10:45:30.386Z,20.20
2018-04-30T10:47:56.733Z,20.10
2018-04-30T10:50:23.842Z,20.20
2018-04-30T10:52:50.818Z,19.90
2018-04-30T10:55:17.143Z,19.90
2018-04-30T10:57:43.603Z,19.80
2018-04-30T11:00:10.695Z,20.00
2018-04-30T11:02:37.045Z,20.00
2018-04-30T11:05:03.327Z,19.90
2018-04-30T11:07:29.651Z,20.00
2018-04-30T11:09:56.691Z,19.90
2018-04-30T11:12:25.138Z,20.00
2018-04-30T11:14:51.428Z,20.00
2018-04-30T11:17:17.738Z,20.10
2018-04-30T11:19:44.812Z,19.80
2018-04-30T11:22:11.144Z,19.80
2018-04-30T11:24:37.462Z,19.70
2018-04-30T11:27:03.743Z,19.50
2018-04-30T11:29:30.044Z,19.70
2018-04-30T11:31:56.352Z,19.90
2018-04-30T11:34:22.917Z,19.80
2018-04-30T11:36:50.246Z,19.70
2018-04-30T11:39:17.292Z,19.60
2018-04-30T11:41:43.671Z,19.60
2018-04-30T11:44:10.000Z,19.50
2018-04-30T11:46:36.316Z,19.60
2018-04-30T11:49:03.499Z,19.60
2018-04-30T11:51:29.876Z,19.50
2018-04-30T11:53:56.190Z,19.50
2018-04-30T11:56:22.492Z,19.50
2018-04-30T11:58:49.619Z,19.50
2018-04-30T12:01:15.951Z,19.40
2018-04-30T12:03:42.267Z,19.60
2018-04-30T12:06:08.579Z,19.50
2018-04-30T12:08:34.887Z,19.50
2018-04-30T12:11:01.224Z,19.50
2018-04-30T12:13:27.548Z,19.60
2018-04-30T12:15:53.851Z,19.40
2018-04-30T12:18:20.209Z,19.50
2018-04-30T12:20:46.522Z,19.60
2018-04-30T12:23:13.641Z,19.70
2018-04-30T12:25:39.976Z,19.70
2018-04-30T12:28:06.303Z,19.60
2018-04-30T12:30:32.635Z,19.60
2018-04-30T12:32:58.960Z,19.40
2018-04-30T12:35:25.288Z,19.50
2018-04-30T12:37:51.647Z,19.50
2018-04-30T12:40:17.959Z,19.30
2018-04-30T12:42:44.279Z,19.50
2018-04-30T12:45:10.598Z,19.50
2018-04-30T12:47:36.916Z,19.40
2018-04-30T12:50:03.252Z,19.40
2018-04-30T12:52:29.568Z,19.40
2018-04-30T12:54:55.901Z,19.50
2018-04-30T12:57:23.220Z,19.30
2018-04-30T12:59:49.564Z,18.60
2018-04-30T13:05:09.336Z,19.40
2018-04-30T13:07:35.639Z,19.50
2018-04-30T13:10:02.147Z,19.70
2018-04-30T13:12:28.523Z,19.70
2018-04-30T13:14:54.863Z,19.70
2018-04-30T13:17:21.198Z,19.80
2018-04-30T13:19:47.536Z,19.90
2018-04-30T13:22:13.947Z,20.00
2018-04-30T13:24:41.102Z,20.10
2018-04-30T13:27:07.385Z,20.20
2018-04-30T13:29:34.452Z,20.20
2018-04-30T13:32:00.789Z,20.10
2018-04-30T13:34:27.787Z,20.10
2018-04-30T13:36:54.120Z,20.10
2018-04-30T13:39:20.432Z,20.00
2018-04-30T13:41:46.879Z,19.80
2018-04-30T13:44:13.251Z,19.80
2018-04-30T13:46:39.653Z,20.00
2018-04-30T13:49:06.726Z,20.00
2018-04-30T13:51:33.787Z,20.00
2018-04-30T13:54:00.164Z,20.00
2018-04-30T13:56:26.489Z,20.00
2018-04-30T13:58:52.809Z,19.90
2018-04-30T14:01:19.142Z,19.90
2018-04-30T14:03:45.596Z,20.00
2018-04-30T14:06:12.135Z,20.00
2018-04-30T14:08:39.199Z,19.90
2018-04-30T14:11:06.253Z,19.90
2018-04-30T14:13:33.285Z,20.00
2018-04-30T14:15:59.701Z,20.00
2018-04-30T14:18:26.065Z,20.30
2018-04-30T14:20:53.150Z,20.30
2018-04-30T14:23:19.480Z,20.30
2018-04-30T14:25:45.763Z,20.20
2018-04-30T14:28:12.035Z,20.20
2018-04-30T14:30:38.344Z,20.10
2018-04-30T14:33:04.734Z,20.00
2018-04-30T14:35:31.043Z,19.80
2018-04-30T14:37:57.343Z,19.70
2018-04-30T14:40:23.644Z,19.60
2018-04-30T14:42:50.021Z,19.60
2018-04-30T14:45:16.313Z,19.60
2018-04-30T14:47:43.435Z,20.00
2018-04-30T14:50:09.836Z,20.00
2018-04-30T14:52:36.123Z,20.30
2018-04-30T14:55:02.547Z,20.60
2018-04-30T14:57:28.811Z,20.80
2018-04-30T14:59:55.859Z,21.00
2018-04-30T15:02:22.160Z,21.00
2018-04-30T15:04:48.436Z,21.10
2018-04-30T15:07:14.753Z,21.10
2018-04-30T15:09:41.108Z,21.20
2018-04-30T15:12:07.410Z,21.10
2018-04-30T15:14:33.751Z,21.20
2018-04-30T15:17:00.113Z,21.40
2018-04-30T15:19:26.477Z,21.20
2018-04-30T15:21:52.724Z,21.20
2018-04-30T15:24:19.744Z,21.30
2018-04-30T15:26:46.047Z,21.30
2018-04-30T15:29:12.367Z,21.40
2018-04-30T15:31:38.655Z,21.50
2018-04-30T15:34:05.712Z,21.40
2018-04-30T15:36:32.733Z,21.40
2018-04-30T15:38:59.025Z,21.30
2018-04-30T15:41:25.303Z,21.30
2018-04-30T15:43:51.592Z,21.00
2018-04-30T15:46:17.879Z,21.10
2018-04-30T15:48:44.939Z,20.70
2018-04-30T15:51:11.191Z,20.70
2018-04-30T15:53:37.517Z,20.70
2018-04-30T15:56:03.889Z,20.70
2018-04-30T15:58:30.164Z,20.50
2018-04-30T16:00:56.489Z,20.50
2018-04-30T16:03:24.099Z,20.20
2018-04-30T16:05:50.378Z,20.20
2018-04-30T16:08:17.411Z,20.00
2018-04-30T16:10:44.654Z,19.90
2018-04-30T16:13:10.974Z,19.90
2018-04-30T16:15:37.381Z,20.00
2018-04-30T16:18:03.679Z,19.90
2018-04-30T16:20:30.707Z,19.60
2018-04-30T16:22:57.803Z,19.30
2018-04-30T16:25:24.104Z,19.30
2018-04-30T16:27:51.180Z,18.90
2018-04-30T16:30:17.552Z,18.80
2018-04-30T16:32:43.859Z,18.70
2018-04-30T16:35:11.180Z,18.50
2018-04-30T16:37:37.595Z,18.40
2018-04-30T16:40:04.706Z,18.20
2018-04-30T16:42:31.112Z,18.20
2018-04-30T16:44:57.403Z,18.10
2018-04-30T16:47:25.105Z,18.00
2018-04-30T16:49:51.404Z,18.00
2018-04-30T16:52:18.456Z,17.80
2018-04-30T16:54:45.660Z,17.70
2018-04-30T16:57:11.980Z,17.70
2018-04-30T16:59:38.271Z,17.70
2018-04-30T17:02:05.402Z,17.60
2018-04-30T17:04:32.721Z,17.50
2018-04-30T17:06:59.116Z,17.50
2018-04-30T17:09:25.419Z,17.40
2018-04-30T17:11:52.476Z,17.20
2018-04-30T17:14:19.585Z,17.30
2018-04-30T17:16:46.097Z,17.30
2018-04-30T17:19:12.540Z,17.50
2018-04-30T17:21:39.096Z,17.80
2018-04-30T17:24:05.537Z,18.00
2018-04-30T17:26:32.035Z,18.30
2018-04-30T17:28:58.444Z,18.30
2018-04-30T17:31:24.929Z,18.20
2018-04-30T17:33:52.136Z,18.30
2018-04-30T17:36:18.635Z,18.30
2018-04-30T17:38:45.864Z,18.30
2018-04-30T17:41:13.125Z,18.20
2018-04-30T17:43:39.512Z,18.20
2018-04-30T17:46:05.931Z,18.10
2018-04-30T17:48:32.989Z,17.90
2018-04-30T17:50:59.308Z,18.00
2018-04-30T17:53:26.367Z,17.80
2018-04-30T17:55:52.910Z,17.80
2018-04-30T17:58:19.222Z,17.70
2018-04-30T18:00:46.244Z,17.30
2018-04-30T18:03:12.555Z,17.30
2018-04-30T18:08:11.897Z,17.20
2018-04-30T18:10:38.191Z,17.20
2018-04-30T18:13:04.612Z,17.00
2018-04-30T18:15:31.019Z,17.10
2018-04-30T18:17:58.098Z,16.90
2018-04-30T18:20:24.426Z,16.80
2018-04-30T18:22:50.761Z,16.80
2018-04-30T18:25:17.089Z,16.70
2018-04-30T18:27:43.417Z,16.60
2018-04-30T18:30:09.726Z,16.60
2018-04-30T18:32:36.048Z,16.50
2018-04-30T18:35:03.080Z,16.70
2018-04-30T18:37:30.152Z,16.70
2018-04-30T18:39:56.460Z,16.70
2018-04-30T18:42:23.468Z,17.10
2018-04-30T18:44:49.755Z,17.00
2018-04-30T18:47:16.043Z,17.10
2018-04-30T18:49:42.332Z,17.00
2018-04-30T18:52:08.615Z,16.90
2018-04-30T18:54:34.905Z,16.80
2018-04-30T18:57:01.195Z,16.80
2018-04-30T18:59:28.308Z,16.50
2018-04-30T19:01:55.148Z,16.40
2018-04-30T19:04:21.473Z,16.40
2018-04-30T19:06:47.766Z,18.30
2018-04-30T19:09:14.081Z,16.20
2018-04-30T19:11:41.128Z,16.10
2018-04-30T19:14:08.163Z,16.10
2018-04-30T19:16:34.437Z,16.00
2018-04-30T19:19:01.367Z,16.00
2018-04-30T19:21:27.662Z,15.90
2018-04-30T19:23:54.070Z,15.80
2018-04-30T19:26:20.516Z,15.90
2018-04-30T19:28:46.911Z,16.00
2018-04-30T19:31:13.214Z,16.10
2018-04-30T19:33:41.329Z,16.10
2018-04-30T19:36:07.638Z,16.00
2018-04-30T19:38:33.943Z,16.00
2018-04-30T19:41:00.983Z,15.80
2018-04-30T19:43:27.271Z,15.80
2018-04-30T19:45:53.591Z,15.70
2018-04-30T19:48:20.083Z,15.70
2018-04-30T19:50:47.188Z,15.60
2018-04-30T19:53:13.644Z,15.60
2018-04-30T19:55:39.931Z,15.60
2018-04-30T19:58:06.244Z,15.50
2018-04-30T20:00:33.276Z,15.40
2018-04-30T20:02:59.579Z,15.40
2018-04-30T20:05:25.887Z,15.30
2018-04-30T20:07:52.194Z,15.30
2018-04-30T20:10:18.479Z,15.30
2018-04-30T20:12:44.770Z,15.20
2018-04-30T20:15:11.087Z,15.20
2018-04-30T20:17:37.368Z,15.10
2018-04-30T20:20:03.680Z,15.00
2018-04-30T20:22:29.989Z,15.00
2018-04-30T20:24:56.270Z,14.90
2018-04-30T20:27:22.559Z,14.90
2018-04-30T20:29:48.868Z,14.90
2018-04-30T20:32:15.138Z,14.80
2018-04-30T20:34:41.501Z,14.80
2018-04-30T20:37:07.787Z,14.80
2018-04-30T20:39:34.101Z,14.80
2018-04-30T20:42:00.449Z,14.80
2018-04-30T20:44:26.829Z,14.70
2018-04-30T20:46:53.413Z,14.70
2018-04-30T20:49:19.749Z,14.70
2018-04-30T20:51:46.069Z,14.60
2018-04-30T20:54:12.410Z,14.60
2018-04-30T20:56:38.717Z,14.50
2018-04-30T20:59:05.003Z,14.40
2018-04-30T21:01:31.314Z,14.30
2018-04-30T21:03:57.633Z,14.30
2018-04-30T21:06:23.987Z,14.30
2018-04-30T21:09:02.367Z,14.30
2018-04-30T21:11:28.989Z,14.40
2018-04-30T21:13:55.275Z,14.40
2018-04-30T21:16:21.636Z,14.30
2018-04-30T21:18:48.722Z,14.10
2018-04-30T21:21:15.067Z,14.10
2018-04-30T21:23:41.365Z,14.10
2018-04-30T21:26:07.745Z,14.10
2018-04-30T21:28:34.134Z,14.20
2018-04-30T21:31:00.557Z,14.30
2018-04-30T21:33:27.761Z,14.80
2018-04-30T21:35:54.555Z,14.70
2018-04-30T21:38:21.292Z,14.90
2018-04-30T21:40:47.713Z,14.90
2018-04-30T21:43:14.739Z,14.60
2018-04-30T21:45:41.224Z,14.60
2018-04-30T21:48:07.516Z,12.70
2018-04-30T21:50:34.553Z,14.40
2018-04-30T21:53:00.843Z,14.40
2018-04-30T21:55:27.146Z,14.40
2018-04-30T21:57:54.317Z,14.20
2018-04-30T22:00:26.726Z,14.20
2018-04-30T22:02:53.817Z,14.20
2018-04-30T22:05:20.227Z,14.10
2018-04-30T22:07:46.707Z,14.20
2018-04-30T22:10:13.012Z,14.30
2018-04-30T22:12:40.075Z,14.40
2018-04-30T22:15:06.428Z,14.40
2018-04-30T22:17:32.748Z,14.40
2018-04-30T22:19:59.135Z,14.40
2018-04-30T22:22:26.187Z,14.30
2018-04-30T22:24:53.244Z,14.40
2018-04-30T22:27:20.363Z,14.20
2018-04-30T22:29:46.633Z,14.20
2018-04-30T22:32:13.675Z,14.00
2018-04-30T22:34:40.817Z,13.90
2018-04-30T22:37:07.849Z,13.80
2018-04-30T22:39:34.219Z,13.80
2018-04-30T22:42:00.756Z,13.60
2018-04-30T22:44:27.070Z,13.50
2018-04-30T22:46:54.176Z,13.40
2018-04-30T22:49:20.479Z,13.40
2018-04-30T22:51:46.780Z,13.40
2018-04-30T22:54:13.825Z,13.30
2018-04-30T22:56:40.993Z,13.30
2018-04-30T22:59:07.330Z,13.30
2018-04-30T23:01:33.641Z,13.30
2018-04-30T23:04:00.725Z,13.20
2018-04-30T23:06:27.076Z,13.20
2018-04-30T23:08:53.503Z,13.20
2018-04-30T23:11:19.788Z,13.20
2018-04-30T23:13:47.792Z,13.20
2018-04-30T23:16:14.117Z,13.20
2018-04-30T23:18:40.441Z,13.20
2018-04-30T23:21:06.814Z,13.20
2018-04-30T23:23:33.124Z,13.10
2018-04-30T23:25:59.437Z,13.10
2018-04-30T23:28:25.732Z,13.10
2018-04-30T23:30:52.764Z,13.00
2018-04-30T23:33:19.055Z,13.00
2018-04-30T23:35:46.342Z,13.00
2018-04-30T23:38:12.666Z,13.00
2018-04-30T23:40:39.080Z,13.00
2018-04-30T23:43:05.392Z,13.00
2018-04-30T23:45:31.714Z,13.00
2018-04-30T23:47:58.017Z,12.90
2018-04-30T23:50:24.390Z,12.90
2018-04-30T23:52:50.706Z,12.90
2018-04-30T23:55:17.015Z,12.90
2018-04-30T23:57:44.124Z,12.80
